Time;durP1;ratioP1;P1;durP2;ratioP2;P2;SDS_P1;SDS_P2;PMS_P1;PMS_P2;Temp;Humidity;BMP_temperature;BMP_pressure;BME280_temperature;BME280_humidity;BME280_pressure;Samples;Min_cycle;Max_cycle;Signal;HPM_P1;HPM_P2
2022/04/04 00:00:05;;;;;;;6.23;5.67;;;-2.10;99.90;;;;;;4958901;28;20975;-72
2022/04/04 00:02:31;;;;;;;7.93;6.23;;;-2.10;99.90;;;;;;4956533;28;20436;-71
2022/04/04 00:04:56;;;;;;;10.83;6.47;;;-2.20;99.90;;;;;;4956407;29;20387;-71
2022/04/04 00:07:22;;;;;;;9.67;6.40;;;-2.20;99.90;;;;;;4956327;28;20177;-72
2022/04/04 00:09:47;;;;;;;9.87;6.53;;;-2.20;99.90;;;;;;4956350;29;20204;-71
2022/04/04 00:12:13;;;;;;;10.87;6.33;;;-2.20;99.90;;;;;;4956262;29;20653;-71
2022/04/04 00:14:38;;;;;;;8.73;6.90;;;-2.20;99.90;;;;;;4956317;28;20671;-71
2022/04/04 00:17:04;;;;;;;9.77;6.40;;;-2.20;99.90;;;;;;4956781;29;20206;-72
2022/04/04 00:19:30;;;;;;;7.67;5.87;;;-2.30;99.90;;;;;;4956647;28;20173;-72
2022/04/04 00:21:56;;;;;;;8.43;6.60;;;-2.30;99.90;;;;;;4955899;28;21047;-72
2022/04/04 00:24:23;;;;;;;12.53;6.63;;;-2.30;99.90;;;;;;4956134;28;20179;-72
2022/04/04 00:26:48;;;;;;;8.23;6.53;;;-2.40;99.90;;;;;;4956000;28;20414;-72
2022/04/04 00:29:14;;;;;;;11.87;7.50;;;-2.40;99.90;;;;;;4956060;29;20823;-72
2022/04/04 00:31:39;;;;;;;10.50;7.80;;;-2.40;99.90;;;;;;4955537;29;20673;-72
2022/04/04 00:34:05;;;;;;;8.47;7.07;;;-2.40;99.90;;;;;;4955972;28;20229;-72
2022/04/04 00:36:30;;;;;;;10.53;8.20;;;-2.40;99.90;;;;;;4955994;29;20255;-71
2022/04/04 00:38:56;;;;;;;11.80;7.20;;;-2.50;99.90;;;;;;4955611;29;20202;-71
2022/04/04 00:41:21;;;;;;;11.13;6.93;;;-2.40;99.90;;;;;;4955621;28;20207;-71
2022/04/04 00:43:51;;;;;;;10.40;6.80;;;-2.40;99.90;;;;;;4956570;29;20181;-72
2022/04/04 00:46:16;;;;;;;13.17;7.67;;;-2.40;99.90;;;;;;4956507;28;20201;-71
2022/04/04 00:48:42;;;;;;;12.63;6.93;;;-2.50;99.90;;;;;;4955578;29;20885;-72
2022/04/04 00:51:07;;;;;;;8.07;7.27;;;-2.50;99.90;;;;;;4955366;29;20209;-72
2022/04/04 00:53:33;;;;;;;9.37;6.30;;;-2.50;99.90;;;;;;4955603;29;20202;-72
2022/04/04 00:55:59;;;;;;;8.70;7.00;;;-2.50;99.90;;;;;;4955441;28;20179;-72
2022/04/04 00:58:27;;;;;;;11.00;7.47;;;-2.50;99.90;;;;;;4955690;28;20185;-72
2022/04/04 02:31:49;;;;;;;10.90;6.40;;;-3.00;99.90;;;;;;5629532;23;21065;-72
2022/04/04 02:34:14;;;;;;;9.03;6.83;;;-3.00;99.90;;;;;;4978201;28;20423;-72
2022/04/04 02:36:40;;;;;;;10.87;6.80;;;-3.00;99.90;;;;;;4980809;28;20200;-71
2022/04/04 02:39:05;;;;;;;10.17;6.50;;;-3.10;99.90;;;;;;4975200;28;20657;-69
2022/04/04 02:41:31;;;;;;;11.83;6.67;;;-3.10;99.90;;;;;;4973160;28;20199;-71
2022/04/04 02:43:57;;;;;;;11.70;6.67;;;-3.10;99.90;;;;;;4971991;28;20203;-71
2022/04/04 02:46:22;;;;;;;8.30;6.60;;;-3.20;99.90;;;;;;4973039;28;20235;-72
2022/04/04 02:48:48;;;;;;;8.60;6.90;;;-3.10;99.90;;;;;;4972749;28;20438;-71
2022/04/04 02:51:13;;;;;;;11.97;7.00;;;-3.10;99.90;;;;;;4970407;28;20212;-71
2022/04/04 02:53:39;;;;;;;18.27;8.53;;;-3.20;99.90;;;;;;4964412;28;20189;-72
2022/04/04 02:58:49;;;;;;;10.07;7.20;;;-3.20;99.90;;;;;;4972160;28;20234;-71
2022/04/04 03:01:14;;;;;;;11.47;6.60;;;-3.30;99.90;;;;;;4967346;28;20442;-71
2022/04/04 03:03:40;;;;;;;10.40;7.23;;;-3.30;99.90;;;;;;4972667;28;20270;-71
2022/04/04 03:06:06;;;;;;;12.30;7.47;;;-3.30;99.90;;;;;;4967008;28;20276;-73
2022/04/04 03:08:32;;;;;;;13.27;6.60;;;-3.30;99.90;;;;;;4972599;28;20614;-71
2022/04/04 03:10:57;;;;;;;10.00;6.67;;;-3.30;99.90;;;;;;4969221;28;20205;-71
2022/04/04 03:13:23;;;;;;;11.07;7.60;;;-3.30;99.90;;;;;;4972762;28;20259;-70
2022/04/04 03:15:48;;;;;;;11.73;6.27;;;-3.30;99.90;;;;;;4972718;28;20320;-71
2022/04/04 03:18:14;;;;;;;12.53;6.63;;;-3.30;99.90;;;;;;4972709;28;20221;-71
2022/04/04 03:20:39;;;;;;;13.93;7.40;;;-3.40;99.90;;;;;;4965316;28;20199;-71
2022/04/04 03:23:05;;;;;;;10.67;6.53;;;-3.40;99.90;;;;;;4972344;28;20195;-72
2022/04/04 03:25:31;;;;;;;11.20;7.63;;;-3.40;99.90;;;;;;4970774;28;20266;-71
2022/04/04 03:27:57;;;;;;;9.10;6.50;;;-3.40;99.90;;;;;;4970188;28;20212;-71
2022/04/04 03:30:25;;;;;;;12.70;7.77;;;-3.40;99.90;;;;;;4972403;28;20426;-69
2022/04/04 03:32:53;;;;;;;8.40;6.40;;;-3.40;99.90;;;;;;4968953;28;20443;-71
2022/04/04 03:35:19;;;;;;;16.83;7.10;;;-3.40;99.90;;;;;;4963885;28;20914;-71
2022/04/04 03:37:51;;;;;;;9.60;7.10;;;-3.40;99.90;;;;;;4969101;28;20484;-71
2022/04/04 03:40:19;;;;;;;10.53;6.63;;;-3.50;99.90;;;;;;4972564;28;20172;-71
2022/04/04 03:42:47;;;;;;;8.27;7.20;;;-3.40;99.90;;;;;;4969499;28;20486;-72
2022/04/04 03:45:14;;;;;;;10.70;7.33;;;-3.50;99.90;;;;;;4971747;28;20802;-72
2022/04/04 03:47:41;;;;;;;14.40;7.80;;;-3.50;99.90;;;;;;4972367;28;20501;-72
2022/04/04 03:50:08;;;;;;;12.37;8.07;;;-3.60;99.90;;;;;;4968954;28;20443;-71
2022/04/04 03:52:34;;;;;;;15.73;8.07;;;-3.40;99.90;;;;;;4969354;28;20438;-72
2022/04/04 03:55:00;;;;;;;8.77;6.53;;;-3.50;99.90;;;;;;4968136;28;20949;-72
2022/04/04 03:57:27;;;;;;;19.57;8.50;;;-3.40;99.90;;;;;;4966761;28;20185;-72
2022/04/04 03:59:53;;;;;;;11.57;7.23;;;-3.50;99.90;;;;;;4972607;28;20390;-72
2022/04/04 04:02:19;;;;;;;9.03;7.40;;;-3.50;99.90;;;;;;4972538;28;20492;-72
2022/04/04 04:04:44;;;;;;;15.93;8.03;;;-3.50;99.90;;;;;;4970263;28;20214;-72
2022/04/04 04:07:14;;;;;;;10.57;7.07;;;-3.50;99.90;;;;;;4969085;28;20972;-72
2022/04/04 04:09:40;;;;;;;9.80;6.90;;;-3.50;99.90;;;;;;4970532;28;20188;-72
2022/04/04 04:12:06;;;;;;;11.60;7.37;;;-3.60;99.90;;;;;;4975591;28;20414;-72
2022/04/04 04:14:31;;;;;;;12.87;8.17;;;-3.50;99.90;;;;;;4973608;28;20196;-72
2022/04/04 04:16:57;;;;;;;17.40;8.33;;;-3.60;99.90;;;;;;4975782;28;20390;-71
2022/04/04 04:22:07;;;;;;;13.77;7.57;;;-3.70;99.90;;;;;;4972189;28;20664;-71
2022/04/04 04:24:32;;;;;;;15.03;7.40;;;-3.60;99.90;;;;;;4972153;28;20501;-71
2022/04/04 04:26:58;;;;;;;10.93;7.07;;;-3.60;99.90;;;;;;4975390;28;20243;-71
2022/04/04 04:29:23;;;;;;;16.33;6.87;;;-3.60;99.90;;;;;;4973104;28;20243;-72
2022/04/04 04:31:49;;;;;;;8.80;6.90;;;-3.60;99.90;;;;;;4973759;28;20271;-71
2022/04/04 04:34:14;;;;;;;9.90;7.67;;;-3.60;99.90;;;;;;4970369;28;20216;-71
2022/04/04 04:36:40;;;;;;;12.90;7.90;;;-3.60;99.90;;;;;;4973010;28;20191;-71
2022/04/04 04:39:06;;;;;;;13.50;8.30;;;-3.70;99.90;;;;;;4974074;28;20227;-70
2022/04/04 04:41:32;;;;;;;11.10;8.23;;;-3.60;99.90;;;;;;4971453;28;20212;-70
2022/04/04 04:43:58;;;;;;;20.07;8.93;;;-3.60;99.90;;;;;;4975136;28;20486;-70
2022/04/04 04:46:23;;;;;;;13.13;7.80;;;-3.60;99.90;;;;;;4975059;28;20430;-70
2022/04/04 04:48:49;;;;;;;10.20;7.00;;;-3.60;99.90;;;;;;4975508;28;20300;-70
2022/04/04 04:51:15;;;;;;;14.10;8.13;;;-3.60;99.90;;;;;;4968357;28;20648;-70
2022/04/04 04:53:40;;;;;;;14.87;7.80;;;-3.60;99.90;;;;;;4975086;28;20182;-70
2022/04/04 04:56:06;;;;;;;10.30;6.93;;;-3.60;99.90;;;;;;4971869;28;20248;-70
2022/04/04 04:58:31;;;;;;;15.40;7.83;;;-3.60;99.90;;;;;;4976098;28;20532;-71
2022/04/04 05:00:57;;;;;;;9.70;6.40;;;-3.60;99.90;;;;;;4973159;28;20729;-71
2022/04/04 05:03:26;;;;;;;12.93;8.10;;;-3.60;99.90;;;;;;4972347;28;20457;-71
2022/04/04 05:05:51;;;;;;;6.50;5.80;;;-3.50;99.90;;;;;;4969090;28;20188;-71
2022/04/04 05:08:18;;;;;;;11.07;7.80;;;-3.40;99.90;;;;;;4974568;28;20577;-71
2022/04/04 05:10:43;;;;;;;9.37;6.63;;;-3.40;99.90;;;;;;4973120;28;20465;-70
2022/04/04 05:13:09;;;;;;;7.77;6.60;;;-3.40;99.90;;;;;;4974835;28;20498;-71
2022/04/04 05:15:34;;;;;;;8.97;6.93;;;-3.40;99.90;;;;;;4971492;28;20227;-71
2022/04/04 05:18:00;;;;;;;10.60;7.30;;;-3.50;99.90;;;;;;4971235;28;20246;-71
2022/04/04 05:20:26;;;;;;;10.60;7.57;;;-3.40;99.90;;;;;;4970958;28;20199;-71
2022/04/04 05:22:51;;;;;;;10.27;7.97;;;-3.40;99.90;;;;;;4970741;28;20247;-71
2022/04/04 05:25:17;;;;;;;8.30;6.77;;;-3.40;99.90;;;;;;4963746;28;20196;-70
2022/04/04 05:27:43;;;;;;;14.43;7.30;;;-3.30;99.90;;;;;;4967627;28;20766;-70
2022/04/04 05:30:09;;;;;;;9.50;7.10;;;-3.30;99.90;;;;;;4967768;28;20177;-71
2022/04/04 05:32:35;;;;;;;10.73;6.30;;;-3.20;99.90;;;;;;4971001;28;20668;-72
2022/04/04 05:35:02;;;;;;;14.97;8.30;;;-3.20;99.90;;;;;;4968542;28;20964;-70
2022/04/04 05:37:29;;;;;;;13.13;8.30;;;-3.10;99.90;;;;;;4968116;28;20546;-69
2022/04/04 05:39:54;;;;;;;8.77;7.40;;;-3.00;99.90;;;;;;4974147;28;20425;-70
2022/04/04 05:42:20;;;;;;;16.53;7.43;;;-2.80;99.90;;;;;;4967260;28;20443;-71
2022/04/04 05:44:45;;;;;;;12.40;7.30;;;-2.70;99.90;;;;;;4954887;28;20202;-70
2022/04/04 05:47:13;;;;;;;11.30;7.50;;;-2.60;99.90;;;;;;4955600;28;20206;-70
2022/04/04 05:49:40;;;;;;;11.43;7.40;;;-2.40;99.90;;;;;;4965855;28;20272;-70
2022/04/04 05:52:06;;;;;;;9.97;6.83;;;-2.40;99.90;;;;;;4969876;28;20477;-69
2022/04/04 05:54:31;;;;;;;9.40;7.70;;;-2.20;99.90;;;;;;4973733;28;20416;-70
2022/04/04 05:56:57;;;;;;;12.73;7.37;;;-2.10;99.90;;;;;;4974024;28;20263;-69
2022/04/04 05:59:24;;;;;;;12.20;7.03;;;-1.90;99.90;;;;;;4969436;28;20472;-70
2022/04/04 06:01:49;;;;;;;12.17;9.10;;;-1.70;99.90;;;;;;4973575;28;20207;-69
2022/04/04 06:04:15;;;;;;;15.63;7.13;;;-1.60;99.90;;;;;;4970468;28;20420;-70
2022/04/04 06:06:40;;;;;;;15.23;7.90;;;-1.40;99.90;;;;;;4971004;28;20277;-70
2022/04/04 06:09:06;;;;;;;8.17;7.03;;;-1.10;99.90;;;;;;4973525;28;20645;-70
2022/04/04 06:11:31;;;;;;;9.20;5.87;;;-0.50;99.90;;;;;;4973362;28;20294;-73
2022/04/04 06:13:57;;;;;;;8.57;6.67;;;1.00;99.90;;;;;;4969520;28;20542;-71
2022/04/04 06:16:23;;;;;;;6.93;5.70;;;2.90;99.90;;;;;;4973463;28;20256;-71
2022/04/04 06:18:50;;;;;;;12.97;5.33;;;4.70;99.90;;;;;;4968939;28;20252;-70
2022/04/04 06:21:16;;;;;;;11.93;5.30;;;6.50;99.90;;;;;;4969163;28;20198;-73
2022/04/04 06:23:41;;;;;;;8.63;6.73;;;7.60;99.90;;;;;;4972159;28;20874;-72
2022/04/04 06:26:07;;;;;;;7.60;6.10;;;8.60;99.90;;;;;;4970274;28;20196;-72
2022/04/04 06:28:34;;;;;;;6.60;5.93;;;9.40;99.90;;;;;;4973058;28;20207;-72
2022/04/04 06:31:02;;;;;;;8.77;5.70;;;10.40;99.90;;;;;;4970785;28;20203;-72
2022/04/04 06:33:30;;;;;;;6.70;5.73;;;10.60;99.90;;;;;;4968907;28;20474;-72
2022/04/04 06:35:56;;;;;;;14.53;6.20;;;11.10;99.90;;;;;;4964659;28;20776;-71
2022/04/04 06:38:22;;;;;;;6.87;6.10;;;11.40;99.90;;;;;;4973440;28;20447;-74
2022/04/04 06:40:49;;;;;;;6.83;5.53;;;11.60;99.90;;;;;;4969557;28;20435;-72
2022/04/04 06:43:16;;;;;;;12.77;5.47;;;11.90;99.90;;;;;;4973156;28;20407;-71
2022/04/04 06:45:42;;;;;;;7.60;5.20;;;11.80;99.90;;;;;;4969985;28;20816;-72
2022/04/04 06:48:09;;;;;;;8.17;5.67;;;11.90;99.90;;;;;;4971021;28;20451;-73
2022/04/04 06:50:35;;;;;;;7.70;6.00;;;12.30;99.90;;;;;;4971380;28;20649;-70
2022/04/04 06:53:00;;;;;;;9.73;5.70;;;11.80;99.90;;;;;;4973856;28;20429;-72
2022/04/04 06:55:26;;;;;;;8.70;5.83;;;11.40;99.90;;;;;;4971591;28;20191;-73
2022/04/04 06:57:51;;;;;;;7.30;6.17;;;11.00;99.90;;;;;;4972140;28;20188;-72
2022/04/04 07:00:17;;;;;;;8.57;6.40;;;10.60;99.90;;;;;;4975859;28;20235;-72
2022/04/04 07:02:47;;;;;;;7.60;6.40;;;10.00;99.90;;;;;;4976918;28;20211;-72
2022/04/04 07:05:12;;;;;;;7.83;7.03;;;9.60;99.90;;;;;;4970351;28;20239;-73
2022/04/04 07:07:38;;;;;;;7.60;6.70;;;9.50;99.90;;;;;;4969363;28;20462;-72
2022/04/04 07:10:04;;;;;;;6.63;5.83;;;9.50;99.90;;;;;;4973146;28;20176;-72
2022/04/04 07:12:30;;;;;;;6.83;6.13;;;9.30;99.90;;;;;;4971055;28;20231;-72
2022/04/04 07:14:56;;;;;;;6.03;5.43;;;8.60;99.90;;;;;;4972776;28;20498;-72
2022/04/04 07:17:21;;;;;;;9.17;7.33;;;8.60;99.90;;;;;;4972484;28;20683;-72
2022/04/04 07:19:47;;;;;;;5.90;5.00;;;8.90;99.90;;;;;;4970293;28;20946;-71
2022/04/04 07:22:14;;;;;;;7.90;6.27;;;8.90;99.90;;;;;;4967967;28;20215;-72
2022/04/04 07:24:40;;;;;;;6.77;6.10;;;9.20;99.90;;;;;;4972684;28;20182;-72
2022/04/04 07:27:05;;;;;;;10.10;6.30;;;9.00;99.90;;;;;;4970386;28;20936;-72
2022/04/04 07:29:31;;;;;;;6.63;5.83;;;8.90;99.90;;;;;;4972398;28;20184;-72
2022/04/04 07:31:57;;;;;;;7.43;5.03;;;8.60;99.90;;;;;;4972208;28;20225;-72
2022/04/04 07:34:22;;;;;;;6.53;5.23;;;8.70;99.90;;;;;;4967941;28;20687;-72
2022/04/04 07:36:48;;;;;;;5.73;5.23;;;8.80;99.90;;;;;;4964566;28;20265;-71
2022/04/04 07:39:13;;;;;;;6.87;6.13;;;8.30;99.90;;;;;;4971385;28;20192;-72
2022/04/04 07:41:39;;;;;;;13.70;6.53;;;8.20;99.90;;;;;;4964324;28;20217;-72
2022/04/04 07:44:05;;;;;;;11.80;6.47;;;8.20;99.90;;;;;;4964910;28;20190;-71
2022/04/04 07:46:31;;;;;;;9.17;5.73;;;8.00;99.90;;;;;;4976091;28;20189;-71
2022/04/04 07:48:57;;;;;;;7.67;6.37;;;8.00;99.90;;;;;;4975846;28;20440;-71
2022/04/04 07:51:23;;;;;;;8.10;5.63;;;8.10;99.90;;;;;;4972737;28;20523;-71
2022/04/04 07:53:49;;;;;;;6.07;5.57;;;8.40;99.90;;;;;;4974174;28;20434;-72
2022/04/04 07:56:14;;;;;;;6.27;5.67;;;8.40;99.90;;;;;;4974921;28;20244;-72
2022/04/04 07:58:40;;;;;;;7.37;6.73;;;8.30;99.90;;;;;;4973307;28;20191;-72
2022/04/04 08:01:05;;;;;;;12.30;6.90;;;8.50;99.90;;;;;;4974765;28;20202;-71
2022/04/04 08:03:31;;;;;;;6.83;6.23;;;8.80;99.90;;;;;;4975424;28;20190;-72
2022/04/04 08:05:57;;;;;;;6.60;6.00;;;8.40;99.90;;;;;;4972926;28;20285;-72
2022/04/04 08:08:24;;;;;;;7.20;6.57;;;8.70;99.90;;;;;;4979280;28;20490;-72
2022/04/04 08:10:50;;;;;;;7.83;7.03;;;8.80;99.90;;;;;;4973973;28;20181;-72
2022/04/04 08:13:15;;;;;;;9.87;7.37;;;9.20;99.90;;;;;;4975675;28;20910;-72
2022/04/04 08:15:41;;;;;;;10.93;7.70;;;9.20;99.90;;;;;;4975475;28;20174;-72
2022/04/04 08:18:06;;;;;;;7.77;6.47;;;9.30;99.90;;;;;;4975298;28;20177;-73
2022/04/04 08:20:32;;;;;;;7.40;6.40;;;9.30;99.90;;;;;;4966688;28;20188;-72
2022/04/04 08:22:58;;;;;;;8.50;7.57;;;9.30;99.90;;;;;;4975340;28;20575;-72
2022/04/04 08:25:24;;;;;;;8.50;6.87;;;9.50;99.90;;;;;;4974085;28;20255;-73
2022/04/04 08:27:49;;;;;;;8.43;7.13;;;9.40;99.90;;;;;;4973187;28;20440;-72
2022/04/04 08:30:17;;;;;;;7.90;7.10;;;9.30;99.90;;;;;;4974836;28;20599;-72
2022/04/04 08:32:43;;;;;;;11.57;8.03;;;9.30;99.90;;;;;;4970366;28;20782;-71
2022/04/04 08:35:13;;;;;;;7.97;7.27;;;9.50;99.90;;;;;;4966804;28;20434;-73
2022/04/04 08:37:41;;;;;;;7.80;7.10;;;9.20;99.90;;;;;;4964406;28;20840;-72
2022/04/04 08:40:09;;;;;;;7.73;7.03;;;9.00;99.90;;;;;;4974796;28;20408;-72
2022/04/04 08:42:35;;;;;;;11.70;7.03;;;9.20;99.90;;;;;;4974693;28;20438;-72
2022/04/04 08:45:03;;;;;;;8.67;7.53;;;9.30;99.90;;;;;;4975135;28;20431;-71
2022/04/04 08:47:31;;;;;;;8.20;7.10;;;9.50;99.90;;;;;;4970382;28;20805;-71
2022/04/04 08:49:57;;;;;;;7.20;6.50;;;9.50;99.90;;;;;;4973544;28;20477;-71
2022/04/04 08:52:24;;;;;;;9.10;7.40;;;9.70;99.90;;;;;;4971625;28;20441;-72
2022/04/04 08:54:51;;;;;;;7.60;6.83;;;9.50;98.70;;;;;;4972604;28;20430;-71
2022/04/04 08:57:16;;;;;;;8.50;6.97;;;9.00;95.90;;;;;;4974075;28;20942;-72
2022/04/04 08:59:43;;;;;;;8.83;7.13;;;9.00;98.50;;;;;;4974411;28;20406;-71
2022/04/04 09:02:09;;;;;;;8.13;7.33;;;8.90;99.70;;;;;;4969987;28;20896;-71
2022/04/04 09:04:35;;;;;;;7.33;6.07;;;9.00;99.70;;;;;;4971211;28;20469;-71
2022/04/04 09:07:06;;;;;;;9.70;6.33;;;9.20;98.50;;;;;;4972081;28;20475;-71
2022/04/04 09:09:39;;;;;;;6.00;5.50;;;8.90;98.50;;;;;;4971129;28;20187;-71
2022/04/04 09:12:13;;;;;;;8.37;6.47;;;9.20;99.90;;;;;;4974310;28;20428;-71
2022/04/04 09:14:43;;;;;;;6.80;6.20;;;9.90;99.90;;;;;;4973086;28;20442;-71
2022/04/04 09:17:10;;;;;;;6.07;5.00;;;10.30;99.00;;;;;;4972982;28;20442;-72
2022/04/04 09:19:37;;;;;;;6.03;5.30;;;10.90;99.30;;;;;;4985261;28;20869;-71
2022/04/04 09:22:14;;;;;;;6.77;6.10;;;11.00;95.70;;;;;;4973059;28;20626;-70
2022/04/04 09:24:52;;;;;;;6.60;5.87;;;11.30;94.00;;;;;;4974165;28;20406;-71
2022/04/04 09:27:24;;;;;;;6.67;5.80;;;10.70;93.30;;;;;;4974540;28;20421;-70
2022/04/04 09:30:05;;;;;;;5.70;5.17;;;10.60;94.20;;;;;;4971570;28;21051;-71
2022/04/04 09:32:41;;;;;;;5.63;5.13;;;10.80;96.70;;;;;;4954363;28;20451;-71
2022/04/04 09:35:09;;;;;;;7.30;5.77;;;10.90;96.00;;;;;;4967652;28;20453;-71
2022/04/04 09:37:36;;;;;;;7.63;5.27;;;11.00;96.20;;;;;;4966854;28;20439;-71
2022/04/04 09:40:27;;;;;;;6.27;5.67;;;11.20;96.50;;;;;;4973789;28;20478;-71
2022/04/04 09:42:53;;;;;;;6.93;5.90;;;11.30;94.70;;;;;;4969988;28;20471;-71
2022/04/04 09:45:30;;;;;;;7.77;5.90;;;11.90;99.60;;;;;;4973860;28;20422;-71
2022/04/04 09:48:07;;;;;;;6.73;6.20;;;11.70;93.80;;;;;;4970765;28;20565;-71
2022/04/04 09:50:50;;;;;;;6.30;5.50;;;11.80;93.70;;;;;;4970875;28;20809;-72
2022/04/04 09:53:23;;;;;;;6.77;6.17;;;11.50;93.90;;;;;;4972404;28;20470;-71
2022/04/04 09:55:52;;;;;;;8.13;6.30;;;11.60;95.00;;;;;;4973816;28;20430;-71
2022/04/04 09:58:20;;;;;;;7.50;6.80;;;11.80;95.50;;;;;;4970442;28;20451;-71
2022/04/04 10:00:50;;;;;;;6.77;6.17;;;11.70;94.50;;;;;;4973044;28;20501;-71
2022/04/04 10:03:16;;;;;;;6.30;5.70;;;11.60;94.60;;;;;;4971001;28;20455;-71
2022/04/04 10:06:00;;;;;;;7.13;6.30;;;11.80;95.20;;;;;;4969365;28;20439;-71
2022/04/04 10:08:27;;;;;;;7.73;6.97;;;11.60;96.50;;;;;;4972947;28;20490;-71
2022/04/04 10:10:55;;;;;;;7.40;6.70;;;11.60;94.30;;;;;;4973035;28;20412;-71
2022/04/04 10:13:23;;;;;;;6.67;6.03;;;11.50;95.30;;;;;;4971886;28;20616;-71
2022/04/04 10:15:50;;;;;;;6.63;5.97;;;11.90;97.40;;;;;;4970252;28;20445;-71
2022/04/04 10:18:16;;;;;;;6.77;6.23;;;11.50;96.10;;;;;;4973273;28;20778;-71
2022/04/04 10:20:42;;;;;;;7.40;6.60;;;11.70;95.50;;;;;;4970622;28;20449;-71
2022/04/04 10:23:11;;;;;;;5.67;5.17;;;11.30;94.80;;;;;;4973046;28;20188;-71
2022/04/04 10:25:37;;;;;;;7.20;6.27;;;11.30;94.80;;;;;;4969526;28;20541;-71
2022/04/04 10:28:03;;;;;;;8.17;5.83;;;11.90;99.90;;;;;;4973398;28;20455;-71
2022/04/04 10:30:40;;;;;;;7.60;6.30;;;12.50;96.50;;;;;;4969621;28;20844;-70
2022/04/04 10:33:22;;;;;;;7.27;6.37;;;12.50;96.00;;;;;;4970643;28;20187;-72
2022/04/04 10:36:08;;;;;;;7.97;6.53;;;12.20;98.30;;;;;;4962294;28;20439;-71
2022/04/04 10:38:35;;;;;;;6.80;6.20;;;12.80;96.30;;;;;;4953611;29;20448;-71
2022/04/04 10:41:07;;;;;;;7.07;5.43;;;12.90;96.20;;;;;;4965668;28;20545;-69
2022/04/04 10:43:40;;;;;;;7.60;6.40;;;12.10;93.30;;;;;;4972703;28;20451;-71
2022/04/04 10:46:13;;;;;;;7.60;6.17;;;11.40;95.60;;;;;;4973051;28;20967;-71
2022/04/04 10:48:50;;;;;;;6.43;5.57;;;11.40;97.70;;;;;;4971444;28;20466;-72
2022/04/04 10:51:30;;;;;;;4.90;4.50;;;11.80;97.30;;;;;;4964578;28;20466;-71
2022/04/04 10:54:02;;;;;;;6.27;5.77;;;12.30;94.70;;;;;;4953388;28;20514;-72
2022/04/04 10:56:33;;;;;;;5.07;4.63;;;12.60;95.90;;;;;;4958625;28;20908;-71
2022/04/04 10:59:24;;;;;;;5.63;5.17;;;12.90;95.00;;;;;;4972814;28;20494;-71
2022/04/04 11:01:55;;;;;;;4.83;4.50;;;12.80;92.60;;;;;;4972437;28;20465;-70
2022/04/04 11:04:24;;;;;;;6.50;5.60;;;12.80;93.60;;;;;;4968221;28;20971;-71
2022/04/04 11:09:55;;;;;;;5.10;4.70;;;12.00;92.90;;;;;;4972333;28;20414;-70
2022/04/04 11:12:23;;;;;;;3.87;3.60;;;11.40;92.20;;;;;;4970279;28;20443;-70
2022/04/04 11:14:54;;;;;;;5.53;5.00;;;11.40;93.60;;;;;;4970663;28;20513;-70
2022/04/04 11:17:28;;;;;;;4.73;4.27;;;11.20;92.70;;;;;;4973563;28;20409;-71
2022/04/04 11:20:13;;;;;;;5.00;4.50;;;11.50;95.00;;;;;;4975745;28;20895;-70
2022/04/04 11:22:46;;;;;;;4.77;4.37;;;11.60;96.40;;;;;;4974073;28;20450;-70
2022/04/04 11:25:34;;;;;;;4.70;4.27;;;11.60;93.30;;;;;;4974072;28;20471;-70
2022/04/04 11:28:00;;;;;;;6.20;4.70;;;11.20;93.20;;;;;;4977418;28;20510;-70
2022/04/04 11:30:27;;;;;;;4.80;4.40;;;11.10;98.80;;;;;;4976902;28;20453;-70
2022/04/04 11:32:54;;;;;;;6.03;5.13;;;11.30;94.90;;;;;;4976287;28;20458;-70
2022/04/04 11:35:31;;;;;;;4.83;4.43;;;11.30;97.10;;;;;;4969882;28;20547;-71
2022/04/04 11:38:05;;;;;;;5.40;4.90;;;11.40;95.70;;;;;;4974116;28;20435;-71
2022/04/04 11:40:34;;;;;;;6.83;4.77;;;11.40;97.30;;;;;;4975380;28;20437;-71
2022/04/04 11:43:07;;;;;;;5.37;4.73;;;11.50;96.00;;;;;;4974924;28;20470;-71
2022/04/04 11:45:36;;;;;;;4.67;4.37;;;11.30;94.60;;;;;;4972413;28;20469;-71
2022/04/04 11:48:06;;;;;;;4.80;4.40;;;10.80;94.20;;;;;;4975774;28;20464;-70
2022/04/04 11:50:37;;;;;;;4.70;4.40;;;10.80;96.10;;;;;;4967027;28;20446;-71
2022/04/04 11:53:06;;;;;;;4.87;4.47;;;10.80;94.60;;;;;;4971678;28;20872;-71
2022/04/04 11:55:33;;;;;;;5.80;5.00;;;10.70;96.60;;;;;;4974157;28;20789;-71
2022/04/04 11:58:01;;;;;;;4.67;4.33;;;10.50;95.00;;;;;;4977148;28;20895;-71
2022/04/04 12:00:31;;;;;;;6.33;4.90;;;10.40;97.10;;;;;;4976091;28;21401;-72
2022/04/04 12:03:12;;;;;;;5.87;5.37;;;10.50;95.90;;;;;;4975907;28;20498;-71
2022/04/04 12:05:42;;;;;;;4.73;4.30;;;10.50;96.60;;;;;;4972433;28;20446;-72
2022/04/04 12:08:11;;;;;;;6.50;5.20;;;10.40;96.50;;;;;;4974481;28;20993;-71
2022/04/04 12:10:38;;;;;;;3.97;3.67;;;10.40;96.10;;;;;;4974948;28;20434;-71
2022/04/04 12:13:10;;;;;;;4.93;4.50;;;10.30;97.00;;;;;;4959793;28;20512;-71
2022/04/04 12:15:43;;;;;;;4.53;4.13;;;10.10;96.80;;;;;;4955939;28;20508;-71
2022/04/04 12:18:26;;;;;;;5.27;4.87;;;10.40;98.80;;;;;;4973761;28;20442;-71
2022/04/04 12:20:55;;;;;;;5.43;4.93;;;10.10;97.90;;;;;;4972818;28;20449;-71
2022/04/04 12:26:10;;;;;;;5.90;5.10;;;9.80;97.90;;;;;;4975786;28;20417;-70
2022/04/04 12:28:59;;;;;;;4.30;3.93;;;9.90;98.10;;;;;;4972601;28;20557;-70
2022/04/04 12:31:27;;;;;;;5.63;4.70;;;9.70;96.90;;;;;;4973858;28;20470;-71
2022/04/04 12:33:53;;;;;;;4.80;4.47;;;9.70;99.60;;;;;;4965430;28;20440;-71
2022/04/04 12:36:29;;;;;;;5.00;4.60;;;9.80;99.90;;;;;;4964585;28;20445;-71
2022/04/04 12:38:58;;;;;;;6.27;5.77;;;9.90;99.70;;;;;;4973999;28;20417;-71
2022/04/04 12:41:23;;;;;;;4.80;4.40;;;9.80;99.90;;;;;;4974746;28;20978;-71
2022/04/04 12:44:04;;;;;;;5.97;4.70;;;9.80;99.90;;;;;;4973852;28;20445;-70
2022/04/04 12:46:32;;;;;;;5.17;4.50;;;9.80;99.70;;;;;;4973867;28;20183;-70
2022/04/04 12:49:30;;;;;;;5.60;5.07;;;9.60;97.60;;;;;;4974829;28;20466;-70
2022/04/04 12:52:06;;;;;;;5.87;5.27;;;9.30;99.20;;;;;;4960305;28;20458;-70
2022/04/04 12:54:34;;;;;;;4.77;4.40;;;9.30;98.50;;;;;;4974561;28;20417;-70
2022/04/04 12:57:01;;;;;;;6.10;5.17;;;9.40;99.90;;;;;;4975006;28;20416;-70
2022/04/04 12:59:27;;;;;;;5.93;5.37;;;9.60;99.90;;;;;;4973109;28;20857;-70
2022/04/04 13:02:05;;;;;;;8.30;5.33;;;9.60;98.60;;;;;;4974610;28;20820;-70
2022/04/04 13:04:32;;;;;;;6.23;5.73;;;9.40;98.10;;;;;;4973217;28;20450;-70
2022/04/04 13:07:00;;;;;;;5.93;5.37;;;9.30;98.50;;;;;;4962936;28;20525;-70
2022/04/04 13:09:27;;;;;;;6.43;5.53;;;9.30;98.80;;;;;;4972978;28;20479;-70
2022/04/04 13:11:54;;;;;;;5.77;5.27;;;9.10;99.90;;;;;;4974567;28;20949;-70
2022/04/04 13:14:21;;;;;;;7.87;6.43;;;9.20;99.90;;;;;;4974422;28;20420;-71
2022/04/04 13:17:04;;;;;;;6.10;5.60;;;8.90;98.40;;;;;;4969521;28;20437;-70
2022/04/04 13:19:29;;;;;;;6.27;5.77;;;9.10;99.90;;;;;;4973833;28;20852;-70
2022/04/04 13:21:55;;;;;;;5.50;5.10;;;9.00;99.90;;;;;;4971102;28;20552;-70
2022/04/04 13:24:25;;;;;;;6.20;5.07;;;9.00;99.90;;;;;;4974374;28;20665;-70
2022/04/04 13:26:51;;;;;;;8.43;5.37;;;8.90;99.90;;;;;;4969731;28;20189;-70
2022/04/04 13:29:19;;;;;;;7.80;5.80;;;8.90;99.90;;;;;;4973867;28;20466;-70
2022/04/04 13:31:46;;;;;;;6.23;5.70;;;9.10;99.90;;;;;;4970458;28;20491;-70
2022/04/04 13:34:12;;;;;;;10.50;5.33;;;9.20;99.90;;;;;;4971614;28;20831;-71
2022/04/04 13:36:39;;;;;;;6.13;5.43;;;9.30;99.90;;;;;;4961912;28;20450;-70
2022/04/04 13:39:06;;;;;;;5.77;5.00;;;9.40;99.90;;;;;;4973932;28;20438;-70
2022/04/04 13:41:33;;;;;;;7.10;5.40;;;9.40;99.90;;;;;;4987444;28;20862;-71
2022/04/04 13:44:00;;;;;;;6.00;5.37;;;9.40;99.90;;;;;;4972463;28;20437;-70
2022/04/04 13:46:28;;;;;;;6.63;5.40;;;9.40;99.90;;;;;;4973735;28;20427;-70
2022/04/04 13:48:54;;;;;;;6.43;5.67;;;9.40;99.30;;;;;;4969531;28;20480;-70
2022/04/04 13:51:29;;;;;;;7.43;5.60;;;9.30;99.30;;;;;;4971245;28;20992;-70
2022/04/04 13:54:00;;;;;;;9.77;6.97;;;9.30;99.60;;;;;;4972858;28;20431;-70
2022/04/04 13:56:28;;;;;;;6.30;5.70;;;9.10;99.50;;;;;;4973907;28;20419;-70
2022/04/04 13:58:55;;;;;;;7.57;6.20;;;9.10;99.90;;;;;;4970804;28;20450;-70
2022/04/04 14:01:25;;;;;;;6.10;5.60;;;9.20;99.90;;;;;;4973341;28;20492;-70
2022/04/04 14:03:52;;;;;;;6.30;5.70;;;9.20;99.90;;;;;;4973760;28;20421;-70
2022/04/04 14:06:19;;;;;;;6.50;5.90;;;9.40;99.90;;;;;;4970978;28;20446;-70
2022/04/04 14:08:44;;;;;;;9.00;5.60;;;9.30;99.90;;;;;;4973378;28;20454;-70
2022/04/04 14:11:17;;;;;;;7.43;6.40;;;9.30;99.90;;;;;;4973041;28;20508;-69
2022/04/04 14:13:48;;;;;;;5.90;5.50;;;9.20;99.90;;;;;;4968860;28;20194;-70
2022/04/04 14:16:14;;;;;;;6.00;5.40;;;9.30;99.90;;;;;;4972277;28;20419;-70
2022/04/04 14:18:40;;;;;;;7.93;6.10;;;9.20;99.90;;;;;;4972105;28;20416;-70
2022/04/04 14:21:06;;;;;;;6.17;5.57;;;9.20;99.90;;;;;;4968502;28;20523;-70
2022/04/04 14:23:32;;;;;;;7.97;6.60;;;9.40;99.90;;;;;;4973157;28;20194;-71
2022/04/04 14:25:59;;;;;;;6.23;5.57;;;9.50;99.90;;;;;;4968751;28;20455;-71
2022/04/04 14:28:27;;;;;;;6.50;5.90;;;9.60;99.90;;;;;;4972987;28;20250;-70
2022/04/04 14:30:55;;;;;;;6.60;6.00;;;9.40;99.90;;;;;;4969635;28;21006;-71
2022/04/04 14:33:26;;;;;;;5.83;5.30;;;9.30;99.90;;;;;;4974323;28;20438;-71